sensor_id;sensor_type;location;lat;lon;timestamp;P1;durP1;ratioP1;P2;durP2;ratioP2
72974;SDS011;61166;54.228;37.632;2022-08-19T00:02:25;10.50;;;3.60;;
72974;SDS011;61166;54.228;37.632;2022-08-19T00:04:50;7.80;;;2.80;;
72974;SDS011;61166;54.228;37.632;2022-08-19T00:07:18;12.95;;;4.00;;
72974;SDS011;61166;54.228;37.632;2022-08-19T00:09:44;6.75;;;3.88;;
72974;SDS011;61166;54.228;37.632;2022-08-19T00:12:09;5.90;;;3.10;;
72974;SDS011;61166;54.228;37.632;2022-08-19T00:14:35;7.72;;;3.60;;
72974;SDS011;61166;54.228;37.632;2022-08-19T00:17:01;7.43;;;3.60;;
72974;SDS011;61166;54.228;37.632;2022-08-19T00:19:28;8.15;;;3.85;;
72974;SDS011;61166;54.228;37.632;2022-08-19T00:21:53;6.03;;;3.70;;
72974;SDS011;61166;54.228;37.632;2022-08-19T00:24:21;6.70;;;3.42;;
72974;SDS011;61166;54.228;37.632;2022-08-19T00:26:47;8.60;;;3.83;;
72974;SDS011;61166;54.228;37.632;2022-08-19T00:29:14;7.00;;;3.77;;
72974;SDS011;61166;54.228;37.632;2022-08-19T00:31:43;7.32;;;3.80;;
72974;SDS011;61166;54.228;37.632;2022-08-19T00:34:09;6.53;;;3.30;;
72974;SDS011;61166;54.228;37.632;2022-08-19T00:36:36;10.40;;;4.15;;
72974;SDS011;61166;54.228;37.632;2022-08-19T00:39:02;9.73;;;4.73;;
72974;SDS011;61166;54.228;37.632;2022-08-19T00:41:28;8.43;;;4.00;;
72974;SDS011;61166;54.228;37.632;2022-08-19T00:46:31;8.73;;;4.63;;
72974;SDS011;61166;54.228;37.632;2022-08-19T00:48:58;10.57;;;5.03;;
72974;SDS011;61166;54.228;37.632;2022-08-19T00:51:26;13.77;;;5.35;;
72974;SDS011;61166;54.228;37.632;2022-08-19T00:53:54;15.37;;;4.57;;
72974;SDS011;61166;54.228;37.632;2022-08-19T00:56:22;10.50;;;5.13;;
72974;SDS011;61166;54.228;37.632;2022-08-19T00:58:48;10.57;;;5.32;;
72974;SDS011;61166;54.228;37.632;2022-08-19T01:01:14;10.65;;;5.40;;
72974;SDS011;61166;54.228;37.632;2022-08-19T01:03:40;12.10;;;5.90;;
72974;SDS011;61166;54.228;37.632;2022-08-19T01:06:06;11.23;;;5.97;;
72974;SDS011;61166;54.228;37.632;2022-08-19T01:08:32;14.37;;;5.77;;
72974;SDS011;61166;54.228;37.632;2022-08-19T01:10:58;13.95;;;6.40;;
72974;SDS011;61166;54.228;37.632;2022-08-19T01:13:29;16.90;;;6.72;;
72974;SDS011;61166;54.228;37.632;2022-08-19T01:16:02;13.95;;;5.95;;
72974;SDS011;61166;54.228;37.632;2022-08-19T01:18:30;19.17;;;6.82;;
72974;SDS011;61166;54.228;37.632;2022-08-19T01:20:58;15.00;;;7.30;;
72974;SDS011;61166;54.228;37.632;2022-08-19T01:23:28;13.82;;;6.40;;
72974;SDS011;61166;54.228;37.632;2022-08-19T01:26:08;13.05;;;7.35;;
72974;SDS011;61166;54.228;37.632;2022-08-19T01:28:43;11.68;;;6.57;;
72974;SDS011;61166;54.228;37.632;2022-08-19T01:31:13;15.75;;;7.72;;
72974;SDS011;61166;54.228;37.632;2022-08-19T01:33:41;12.93;;;7.03;;
72974;SDS011;61166;54.228;37.632;2022-08-19T01:36:08;16.27;;;7.75;;
72974;SDS011;61166;54.228;37.632;2022-08-19T01:38:39;14.13;;;6.03;;
72974;SDS011;61166;54.228;37.632;2022-08-19T01:41:07;15.13;;;7.53;;
72974;SDS011;61166;54.228;37.632;2022-08-19T01:43:34;14.80;;;6.70;;
72974;SDS011;61166;54.228;37.632;2022-08-19T01:45:59;17.50;;;7.65;;
72974;SDS011;61166;54.228;37.632;2022-08-19T01:48:25;16.37;;;7.87;;
72974;SDS011;61166;54.228;37.632;2022-08-19T01:50:51;16.08;;;8.35;;
72974;SDS011;61166;54.228;37.632;2022-08-19T01:53:17;17.40;;;8.30;;
72974;SDS011;61166;54.228;37.632;2022-08-19T01:55:43;22.45;;;9.35;;
72974;SDS011;61166;54.228;37.632;2022-08-19T01:58:19;14.23;;;6.47;;
72974;SDS011;61166;54.228;37.632;2022-08-19T02:00:47;17.70;;;8.68;;
72974;SDS011;61166;54.228;37.632;2022-08-19T02:03:13;20.27;;;8.45;;
72974;SDS011;61166;54.228;37.632;2022-08-19T02:05:39;24.30;;;11.18;;
72974;SDS011;61166;54.228;37.632;2022-08-19T02:08:05;29.23;;;11.40;;
72974;SDS011;61166;54.228;37.632;2022-08-19T02:10:31;31.60;;;12.20;;
72974;SDS011;61166;54.228;37.632;2022-08-19T02:12:57;25.33;;;11.40;;
72974;SDS011;61166;54.228;37.632;2022-08-19T02:15:22;27.00;;;13.03;;
72974;SDS011;61166;54.228;37.632;2022-08-19T02:17:48;26.35;;;11.70;;
72974;SDS011;61166;54.228;37.632;2022-08-19T02:20:14;30.70;;;11.43;;
72974;SDS011;61166;54.228;37.632;2022-08-19T02:22:41;29.27;;;12.77;;
72974;SDS011;61166;54.228;37.632;2022-08-19T02:25:08;27.02;;;12.25;;
72974;SDS011;61166;54.228;37.632;2022-08-19T02:27:35;34.47;;;13.07;;
72974;SDS011;61166;54.228;37.632;2022-08-19T02:30:00;29.88;;;12.10;;
72974;SDS011;61166;54.228;37.632;2022-08-19T02:32:26;28.57;;;13.03;;
72974;SDS011;61166;54.228;37.632;2022-08-19T02:34:52;23.63;;;11.23;;
72974;SDS011;61166;54.228;37.632;2022-08-19T02:37:18;27.77;;;11.43;;
72974;SDS011;61166;54.228;37.632;2022-08-19T02:40:02;22.13;;;10.68;;
72974;SDS011;61166;54.228;37.632;2022-08-19T02:42:28;22.55;;;12.43;;
72974;SDS011;61166;54.228;37.632;2022-08-19T02:44:55;21.07;;;11.67;;
72974;SDS011;61166;54.228;37.632;2022-08-19T02:47:20;18.13;;;9.52;;
72974;SDS011;61166;54.228;37.632;2022-08-19T02:49:46;18.73;;;9.13;;
72974;SDS011;61166;54.228;37.632;2022-08-19T02:52:13;14.52;;;9.38;;
72974;SDS011;61166;54.228;37.632;2022-08-19T02:54:39;10.90;;;7.10;;
72974;SDS011;61166;54.228;37.632;2022-08-19T02:57:04;13.45;;;7.82;;
72974;SDS011;61166;54.228;37.632;2022-08-19T02:59:31;12.83;;;7.70;;
72974;SDS011;61166;54.228;37.632;2022-08-19T03:01:57;14.80;;;7.38;;
72974;SDS011;61166;54.228;37.632;2022-08-19T03:04:22;13.57;;;7.23;;
72974;SDS011;61166;54.228;37.632;2022-08-19T03:06:49;10.45;;;6.80;;
72974;SDS011;61166;54.228;37.632;2022-08-19T03:09:15;11.80;;;5.80;;
72974;SDS011;61166;54.228;37.632;2022-08-19T03:11:42;10.77;;;6.45;;
72974;SDS011;61166;54.228;37.632;2022-08-19T03:14:08;11.30;;;5.90;;
72974;SDS011;61166;54.228;37.632;2022-08-19T03:16:40;11.35;;;5.68;;
72974;SDS011;61166;54.228;37.632;2022-08-19T03:19:10;12.65;;;6.20;;
72974;SDS011;61166;54.228;37.632;2022-08-19T03:21:36;10.20;;;5.78;;
72974;SDS011;61166;54.228;37.632;2022-08-19T03:24:03;9.63;;;5.47;;
72974;SDS011;61166;54.228;37.632;2022-08-19T03:26:30;9.32;;;4.95;;
72974;SDS011;61166;54.228;37.632;2022-08-19T03:28:56;9.07;;;5.43;;
72974;SDS011;61166;54.228;37.632;2022-08-19T03:31:22;11.85;;;5.38;;
72974;SDS011;61166;54.228;37.632;2022-08-19T03:33:49;13.60;;;5.43;;
72974;SDS011;61166;54.228;37.632;2022-08-19T03:36:20;10.32;;;5.07;;
72974;SDS011;61166;54.228;37.632;2022-08-19T03:38:49;9.98;;;4.63;;
72974;SDS011;61166;54.228;37.632;2022-08-19T03:41:22;7.28;;;4.05;;
72974;SDS011;61166;54.228;37.632;2022-08-19T03:43:49;10.52;;;5.28;;
72974;SDS011;61166;54.228;37.632;2022-08-19T03:46:28;8.43;;;5.13;;
72974;SDS011;61166;54.228;37.632;2022-08-19T03:48:55;8.90;;;5.63;;
72974;SDS011;61166;54.228;37.632;2022-08-19T03:51:27;9.27;;;5.18;;
72974;SDS011;61166;54.228;37.632;2022-08-19T03:53:55;9.35;;;5.22;;
72974;SDS011;61166;54.228;37.632;2022-08-19T03:56:22;10.03;;;5.37;;
72974;SDS011;61166;54.228;37.632;2022-08-19T03:58:50;12.05;;;5.20;;
72974;SDS011;61166;54.228;37.632;2022-08-19T04:01:16;8.80;;;4.80;;
72974;SDS011;61166;54.228;37.632;2022-08-19T04:03:45;8.48;;;4.53;;
72974;SDS011;61166;54.228;37.632;2022-08-19T04:06:12;8.05;;;4.50;;
72974;SDS011;61166;54.228;37.632;2022-08-19T04:08:40;8.50;;;4.47;;
72974;SDS011;61166;54.228;37.632;2022-08-19T04:11:07;8.77;;;4.90;;
72974;SDS011;61166;54.228;37.632;2022-08-19T04:13:33;7.67;;;4.17;;
72974;SDS011;61166;54.228;37.632;2022-08-19T04:15:59;6.47;;;3.92;;
72974;SDS011;61166;54.228;37.632;2022-08-19T04:18:24;7.10;;;4.87;;
72974;SDS011;61166;54.228;37.632;2022-08-19T04:20:50;7.57;;;3.97;;
72974;SDS011;61166;54.228;37.632;2022-08-19T04:23:16;6.90;;;3.90;;
72974;SDS011;61166;54.228;37.632;2022-08-19T04:25:42;6.97;;;3.53;;
72974;SDS011;61166;54.228;37.632;2022-08-19T04:28:09;6.90;;;3.70;;
72974;SDS011;61166;54.228;37.632;2022-08-19T04:30:37;9.13;;;4.25;;
72974;SDS011;61166;54.228;37.632;2022-08-19T04:33:14;7.30;;;3.72;;
72974;SDS011;61166;54.228;37.632;2022-08-19T04:35:42;8.47;;;3.70;;
72974;SDS011;61166;54.228;37.632;2022-08-19T04:38:10;6.75;;;4.20;;
72974;SDS011;61166;54.228;37.632;2022-08-19T04:40:43;7.47;;;3.35;;
72974;SDS011;61166;54.228;37.632;2022-08-19T04:43:29;8.82;;;4.45;;
72974;SDS011;61166;54.228;37.632;2022-08-19T04:45:54;6.23;;;3.53;;
72974;SDS011;61166;54.228;37.632;2022-08-19T04:48:20;6.57;;;3.10;;
72974;SDS011;61166;54.228;37.632;2022-08-19T04:50:51;5.45;;;3.20;;
72974;SDS011;61166;54.228;37.632;2022-08-19T04:53:27;4.30;;;2.72;;
72974;SDS011;61166;54.228;37.632;2022-08-19T04:55:55;6.17;;;3.80;;
72974;SDS011;61166;54.228;37.632;2022-08-19T04:58:21;6.53;;;3.40;;
72974;SDS011;61166;54.228;37.632;2022-08-19T05:00:47;8.90;;;3.90;;
72974;SDS011;61166;54.228;37.632;2022-08-19T05:03:13;7.43;;;4.20;;
72974;SDS011;61166;54.228;37.632;2022-08-19T05:05:41;6.85;;;3.78;;
72974;SDS011;61166;54.228;37.632;2022-08-19T05:08:06;7.35;;;3.80;;
72974;SDS011;61166;54.228;37.632;2022-08-19T05:10:34;6.50;;;3.80;;
72974;SDS011;61166;54.228;37.632;2022-08-19T05:13:01;8.50;;;4.05;;
72974;SDS011;61166;54.228;37.632;2022-08-19T05:15:26;4.37;;;3.83;;
72974;SDS011;61166;54.228;37.632;2022-08-19T05:17:52;6.15;;;3.72;;
72974;SDS011;61166;54.228;37.632;2022-08-19T05:20:46;7.50;;;3.93;;
72974;SDS011;61166;54.228;37.632;2022-08-19T05:23:30;7.82;;;3.92;;
72974;SDS011;61166;54.228;37.632;2022-08-19T05:25:56;5.23;;;3.47;;
72974;SDS011;61166;54.228;37.632;2022-08-19T05:28:21;7.43;;;4.80;;
72974;SDS011;61166;54.228;37.632;2022-08-19T05:30:47;6.57;;;3.75;;
72974;SDS011;61166;54.228;37.632;2022-08-19T05:33:15;9.20;;;4.60;;
72974;SDS011;61166;54.228;37.632;2022-08-19T05:35:40;6.00;;;4.67;;
72974;SDS011;61166;54.228;37.632;2022-08-19T05:38:06;8.33;;;5.30;;
72974;SDS011;61166;54.228;37.632;2022-08-19T05:40:34;7.03;;;4.43;;
72974;SDS011;61166;54.228;37.632;2022-08-19T05:43:04;8.00;;;5.13;;
72974;SDS011;61166;54.228;37.632;2022-08-19T05:45:30;7.50;;;5.03;;
72974;SDS011;61166;54.228;37.632;2022-08-19T05:47:56;6.88;;;5.68;;
72974;SDS011;61166;54.228;37.632;2022-08-19T05:50:21;6.00;;;5.37;;
72974;SDS011;61166;54.228;37.632;2022-08-19T05:52:47;8.35;;;5.13;;
72974;SDS011;61166;54.228;37.632;2022-08-19T05:55:12;7.43;;;4.83;;
72974;SDS011;61166;54.228;37.632;2022-08-19T05:57:38;7.20;;;5.50;;
72974;SDS011;61166;54.228;37.632;2022-08-19T06:00:05;6.37;;;5.70;;
72974;SDS011;61166;54.228;37.632;2022-08-19T06:02:35;9.88;;;4.57;;
72974;SDS011;61166;54.228;37.632;2022-08-19T06:05:02;9.80;;;5.20;;
72974;SDS011;61166;54.228;37.632;2022-08-19T06:07:29;10.75;;;7.47;;
72974;SDS011;61166;54.228;37.632;2022-08-19T06:09:54;12.47;;;7.20;;
72974;SDS011;61166;54.228;37.632;2022-08-19T06:12:20;9.55;;;8.05;;
72974;SDS011;61166;54.228;37.632;2022-08-19T06:14:51;13.82;;;10.10;;
72974;SDS011;61166;54.228;37.632;2022-08-19T06:17:19;16.07;;;10.07;;
72974;SDS011;61166;54.228;37.632;2022-08-19T06:19:44;17.55;;;12.02;;
72974;SDS011;61166;54.228;37.632;2022-08-19T06:22:10;20.63;;;13.20;;
72974;SDS011;61166;54.228;37.632;2022-08-19T06:24:38;17.92;;;12.68;;
72974;SDS011;61166;54.228;37.632;2022-08-19T06:27:03;21.40;;;14.03;;
72974;SDS011;61166;54.228;37.632;2022-08-19T06:29:30;18.10;;;11.98;;
72974;SDS011;61166;54.228;37.632;2022-08-19T06:31:58;18.35;;;12.40;;
72974;SDS011;61166;54.228;37.632;2022-08-19T06:34:25;16.75;;;11.43;;
72974;SDS011;61166;54.228;37.632;2022-08-19T06:36:53;17.17;;;12.77;;
72974;SDS011;61166;54.228;37.632;2022-08-19T06:39:21;18.13;;;12.20;;
72974;SDS011;61166;54.228;37.632;2022-08-19T06:41:50;16.60;;;12.43;;
72974;SDS011;61166;54.228;37.632;2022-08-19T06:44:19;22.67;;;13.60;;
72974;SDS011;61166;54.228;37.632;2022-08-19T06:46:46;21.00;;;13.30;;
72974;SDS011;61166;54.228;37.632;2022-08-19T06:49:12;16.97;;;13.00;;
72974;SDS011;61166;54.228;37.632;2022-08-19T06:51:42;18.52;;;13.05;;
72974;SDS011;61166;54.228;37.632;2022-08-19T06:54:09;16.67;;;12.02;;
72974;SDS011;61166;54.228;37.632;2022-08-19T06:56:35;19.15;;;11.52;;
72974;SDS011;61166;54.228;37.632;2022-08-19T06:59:02;19.47;;;12.67;;
72974;SDS011;61166;54.228;37.632;2022-08-19T07:01:30;14.05;;;11.30;;
72974;SDS011;61166;54.228;37.632;2022-08-19T07:03:59;15.98;;;10.45;;
72974;SDS011;61166;54.228;37.632;2022-08-19T07:06:25;16.50;;;10.67;;
72974;SDS011;61166;54.228;37.632;2022-08-19T07:08:50;19.25;;;12.00;;
72974;SDS011;61166;54.228;37.632;2022-08-19T07:11:16;16.50;;;12.20;;
72974;SDS011;61166;54.228;37.632;2022-08-19T07:13:43;16.70;;;12.20;;
72974;SDS011;61166;54.228;37.632;2022-08-19T07:16:11;18.13;;;11.90;;
72974;SDS011;61166;54.228;37.632;2022-08-19T07:18:39;17.40;;;13.00;;
72974;SDS011;61166;54.228;37.632;2022-08-19T07:23:31;22.00;;;14.15;;
72974;SDS011;61166;54.228;37.632;2022-08-19T07:25:56;18.40;;;13.33;;
72974;SDS011;61166;54.228;37.632;2022-08-19T07:28:22;18.77;;;14.43;;
72974;SDS011;61166;54.228;37.632;2022-08-19T07:30:48;21.03;;;14.10;;
72974;SDS011;61166;54.228;37.632;2022-08-19T07:33:15;19.52;;;14.73;;
72974;SDS011;61166;54.228;37.632;2022-08-19T07:35:41;18.33;;;12.98;;
72974;SDS011;61166;54.228;37.632;2022-08-19T07:38:07;20.57;;;12.77;;
72974;SDS011;61166;54.228;37.632;2022-08-19T07:40:32;18.03;;;12.30;;
72974;SDS011;61166;54.228;37.632;2022-08-19T07:42:58;16.45;;;11.27;;
72974;SDS011;61166;54.228;37.632;2022-08-19T07:45:24;17.50;;;11.50;;
72974;SDS011;61166;54.228;37.632;2022-08-19T07:47:50;17.77;;;12.45;;
72974;SDS011;61166;54.228;37.632;2022-08-19T07:50:16;19.07;;;13.20;;
72974;SDS011;61166;54.228;37.632;2022-08-19T07:52:44;15.98;;;12.90;;
72974;SDS011;61166;54.228;37.632;2022-08-19T07:55:09;20.47;;;13.07;;
72974;SDS011;61166;54.228;37.632;2022-08-19T07:57:35;21.13;;;13.10;;
72974;SDS011;61166;54.228;37.632;2022-08-19T08:00:02;16.80;;;11.70;;
72974;SDS011;61166;54.228;37.632;2022-08-19T08:02:29;20.35;;;12.73;;
72974;SDS011;61166;54.228;37.632;2022-08-19T08:04:55;17.57;;;13.00;;
72974;SDS011;61166;54.228;37.632;2022-08-19T08:07:38;18.23;;;12.93;;
72974;SDS011;61166;54.228;37.632;2022-08-19T08:10:22;19.35;;;13.02;;
72974;SDS011;61166;54.228;37.632;2022-08-19T08:12:48;15.53;;;11.80;;
72974;SDS011;61166;54.228;37.632;2022-08-19T08:15:15;16.50;;;12.18;;
72974;SDS011;61166;54.228;37.632;2022-08-19T08:17:41;17.70;;;11.73;;
72974;SDS011;61166;54.228;37.632;2022-08-19T08:20:07;15.23;;;10.27;;
72974;SDS011;61166;54.228;37.632;2022-08-19T08:22:34;12.20;;;9.45;;
72974;SDS011;61166;54.228;37.632;2022-08-19T08:25:19;11.85;;;9.10;;
72974;SDS011;61166;54.228;37.632;2022-08-19T08:27:48;12.95;;;8.77;;
72974;SDS011;61166;54.228;37.632;2022-08-19T08:30:22;11.57;;;8.43;;
72974;SDS011;61166;54.228;37.632;2022-08-19T08:32:48;11.90;;;8.18;;
72974;SDS011;61166;54.228;37.632;2022-08-19T08:35:16;12.68;;;6.97;;
72974;SDS011;61166;54.228;37.632;2022-08-19T08:37:45;12.65;;;7.75;;
72974;SDS011;61166;54.228;37.632;2022-08-19T08:40:18;9.20;;;6.72;;
72974;SDS011;61166;54.228;37.632;2022-08-19T08:42:55;15.43;;;7.23;;
72974;SDS011;61166;54.228;37.632;2022-08-19T08:45:25;13.02;;;6.28;;
72974;SDS011;61166;54.228;37.632;2022-08-19T08:47:52;11.00;;;6.47;;
72974;SDS011;61166;54.228;37.632;2022-08-19T08:50:35;11.30;;;7.35;;
72974;SDS011;61166;54.228;37.632;2022-08-19T08:53:07;10.85;;;7.60;;
72974;SDS011;61166;54.228;37.632;2022-08-19T08:55:34;11.07;;;7.17;;
72974;SDS011;61166;54.228;37.632;2022-08-19T08:58:04;8.57;;;6.93;;
72974;SDS011;61166;54.228;37.632;2022-08-19T09:00:37;9.03;;;6.90;;
72974;SDS011;61166;54.228;37.632;2022-08-19T09:03:26;11.80;;;6.13;;
72974;SDS011;61166;54.228;37.632;2022-08-19T09:06:05;11.55;;;7.07;;
72974;SDS011;61166;54.228;37.632;2022-08-19T09:09:00;14.32;;;7.70;;
72974;SDS011;61166;54.228;37.632;2022-08-19T09:16:58;13.13;;;8.48;;
72974;SDS011;61166;54.228;37.632;2022-08-19T09:19:24;11.25;;;7.28;;
72974;SDS011;61166;54.228;37.632;2022-08-19T09:21:49;14.77;;;9.97;;
72974;SDS011;61166;54.228;37.632;2022-08-19T09:24:15;10.10;;;8.20;;
72974;SDS011;61166;54.228;37.632;2022-08-19T09:26:40;13.48;;;9.07;;
72974;SDS011;61166;54.228;37.632;2022-08-19T09:29:09;15.32;;;10.00;;
72974;SDS011;61166;54.228;37.632;2022-08-19T09:31:35;12.77;;;10.13;;
72974;SDS011;61166;54.228;37.632;2022-08-19T09:34:01;15.82;;;11.18;;
72974;SDS011;61166;54.228;37.632;2022-08-19T09:36:29;11.98;;;9.02;;
72974;SDS011;61166;54.228;37.632;2022-08-19T09:38:57;13.45;;;9.35;;
72974;SDS011;61166;54.228;37.632;2022-08-19T09:41:25;12.27;;;8.53;;
72974;SDS011;61166;54.228;37.632;2022-08-19T09:43:52;11.35;;;8.20;;
72974;SDS011;61166;54.228;37.632;2022-08-19T09:46:24;13.98;;;8.13;;
72974;SDS011;61166;54.228;37.632;2022-08-19T09:48:52;12.52;;;8.43;;
72974;SDS011;61166;54.228;37.632;2022-08-19T09:51:22;12.02;;;7.85;;
72974;SDS011;61166;54.228;37.632;2022-08-19T09:53:50;11.47;;;8.03;;
72974;SDS011;61166;54.228;37.632;2022-08-19T09:56:18;9.68;;;7.65;;
72974;SDS011;61166;54.228;37.632;2022-08-19T09:58:45;12.82;;;9.23;;
72974;SDS011;61166;54.228;37.632;2022-08-19T10:01:15;14.52;;;9.27;;
72974;SDS011;61166;54.228;37.632;2022-08-19T10:03:49;12.10;;;8.60;;
72974;SDS011;61166;54.228;37.632;2022-08-19T10:06:18;11.87;;;9.07;;
72974;SDS011;61166;54.228;37.632;2022-08-19T10:08:46;12.30;;;8.02;;
72974;SDS011;61166;54.228;37.632;2022-08-19T10:11:11;15.27;;;9.05;;
72974;SDS011;61166;54.228;37.632;2022-08-19T10:13:39;13.68;;;7.97;;
72974;SDS011;61166;54.228;37.632;2022-08-19T10:16:08;11.63;;;8.90;;
72974;SDS011;61166;54.228;37.632;2022-08-19T10:18:36;13.43;;;9.20;;
72974;SDS011;61166;54.228;37.632;2022-08-19T10:21:07;12.65;;;9.38;;
72974;SDS011;61166;54.228;37.632;2022-08-19T10:23:38;14.00;;;8.82;;
72974;SDS011;61166;54.228;37.632;2022-08-19T10:26:05;13.33;;;8.07;;
72974;SDS011;61166;54.228;37.632;2022-08-19T10:28:35;13.38;;;8.65;;
72974;SDS011;61166;54.228;37.632;2022-08-19T10:31:05;15.20;;;10.40;;
72974;SDS011;61166;54.228;37.632;2022-08-19T10:33:36;17.95;;;9.00;;
72974;SDS011;61166;54.228;37.632;2022-08-19T10:36:07;14.65;;;9.20;;
72974;SDS011;61166;54.228;37.632;2022-08-19T10:38:35;14.83;;;9.10;;
72974;SDS011;61166;54.228;37.632;2022-08-19T10:41:08;13.40;;;8.45;;
72974;SDS011;61166;54.228;37.632;2022-08-19T10:43:39;10.48;;;7.90;;
72974;SDS011;61166;54.228;37.632;2022-08-19T10:46:05;12.95;;;8.77;;
72974;SDS011;61166;54.228;37.632;2022-08-19T10:48:34;12.57;;;8.68;;
72974;SDS011;61166;54.228;37.632;2022-08-19T10:51:00;11.67;;;7.47;;
72974;SDS011;61166;54.228;37.632;2022-08-19T10:53:45;9.00;;;6.50;;
72974;SDS011;61166;54.228;37.632;2022-08-19T10:56:10;13.33;;;7.13;;
72974;SDS011;61166;54.228;37.632;2022-08-19T10:58:54;10.47;;;6.87;;
72974;SDS011;61166;54.228;37.632;2022-08-19T11:01:22;11.55;;;6.85;;
72974;SDS011;61166;54.228;37.632;2022-08-19T11:03:48;9.85;;;6.18;;
72974;SDS011;61166;54.228;37.632;2022-08-19T11:06:15;11.60;;;6.07;;
72974;SDS011;61166;54.228;37.632;2022-08-19T11:08:40;11.23;;;6.13;;
72974;SDS011;61166;54.228;37.632;2022-08-19T11:11:09;9.27;;;6.00;;
72974;SDS011;61166;54.228;37.632;2022-08-19T11:13:36;10.43;;;5.63;;
72974;SDS011;61166;54.228;37.632;2022-08-19T11:18:39;10.20;;;5.00;;
72974;SDS011;61166;54.228;37.632;2022-08-19T11:21:15;5.93;;;4.40;;
72974;SDS011;61166;54.228;37.632;2022-08-19T11:23:46;6.25;;;4.68;;
72974;SDS011;61166;54.228;37.632;2022-08-19T11:26:13;7.95;;;5.05;;
72974;SDS011;61166;54.228;37.632;2022-08-19T11:28:40;8.32;;;4.50;;
72974;SDS011;61166;54.228;37.632;2022-08-19T11:31:10;11.67;;;5.27;;
72974;SDS011;61166;54.228;37.632;2022-08-19T11:33:37;8.18;;;4.88;;
72974;SDS011;61166;54.228;37.632;2022-08-19T11:36:02;8.67;;;3.90;;
72974;SDS011;61166;54.228;37.632;2022-08-19T11:38:28;17.45;;;6.05;;
72974;SDS011;61166;54.228;37.632;2022-08-19T11:40:57;9.75;;;4.18;;
72974;SDS011;61166;54.228;37.632;2022-08-19T11:43:26;9.25;;;5.40;;
72974;SDS011;61166;54.228;37.632;2022-08-19T11:45:53;11.93;;;5.40;;
72974;SDS011;61166;54.228;37.632;2022-08-19T11:48:20;10.52;;;5.35;;
72974;SDS011;61166;54.228;37.632;2022-08-19T11:50:52;8.52;;;4.68;;
72974;SDS011;61166;54.228;37.632;2022-08-19T11:53:20;7.88;;;5.38;;
72974;SDS011;61166;54.228;37.632;2022-08-19T11:55:46;9.33;;;4.73;;
72974;SDS011;61166;54.228;37.632;2022-08-19T11:58:13;11.30;;;5.00;;
72974;SDS011;61166;54.228;37.632;2022-08-19T12:00:40;9.80;;;4.70;;
72974;SDS011;61166;54.228;37.632;2022-08-19T12:03:07;11.73;;;5.63;;
72974;SDS011;61166;54.228;37.632;2022-08-19T12:05:32;10.10;;;4.77;;
72974;SDS011;61166;54.228;37.632;2022-08-19T12:07:58;8.55;;;5.28;;
72974;SDS011;61166;54.228;37.632;2022-08-19T12:10:24;11.03;;;6.27;;
72974;SDS011;61166;54.228;37.632;2022-08-19T12:12:49;11.63;;;4.43;;
72974;SDS011;61166;54.228;37.632;2022-08-19T12:15:15;9.83;;;5.23;;
72974;SDS011;61166;54.228;37.632;2022-08-19T12:17:41;10.68;;;5.75;;
72974;SDS011;61166;54.228;37.632;2022-08-19T12:20:08;10.40;;;5.33;;
72974;SDS011;61166;54.228;37.632;2022-08-19T12:22:38;9.50;;;5.20;;
72974;SDS011;61166;54.228;37.632;2022-08-19T12:25:06;10.02;;;5.40;;
72974;SDS011;61166;54.228;37.632;2022-08-19T12:27:34;10.35;;;5.60;;
72974;SDS011;61166;54.228;37.632;2022-08-19T12:30:00;9.15;;;5.55;;
72974;SDS011;61166;54.228;37.632;2022-08-19T12:32:27;6.60;;;4.83;;
72974;SDS011;61166;54.228;37.632;2022-08-19T12:34:52;8.18;;;5.32;;
72974;SDS011;61166;54.228;37.632;2022-08-19T12:37:18;8.07;;;4.35;;
72974;SDS011;61166;54.228;37.632;2022-08-19T12:39:44;10.43;;;5.37;;
72974;SDS011;61166;54.228;37.632;2022-08-19T12:42:10;8.80;;;4.67;;
72974;SDS011;61166;54.228;37.632;2022-08-19T12:44:37;9.85;;;4.47;;
72974;SDS011;61166;54.228;37.632;2022-08-19T12:47:04;8.30;;;4.55;;
72974;SDS011;61166;54.228;37.632;2022-08-19T12:49:31;8.45;;;4.13;;
72974;SDS011;61166;54.228;37.632;2022-08-19T12:51:59;11.07;;;4.90;;
72974;SDS011;61166;54.228;37.632;2022-08-19T12:54:32;8.07;;;3.80;;
72974;SDS011;61166;54.228;37.632;2022-08-19T12:56:58;7.22;;;3.83;;
72974;SDS011;61166;54.228;37.632;2022-08-19T12:59:24;7.40;;;3.53;;
72974;SDS011;61166;54.228;37.632;2022-08-19T13:01:50;5.60;;;2.70;;
72974;SDS011;61166;54.228;37.632;2022-08-19T13:04:15;8.70;;;4.20;;
72974;SDS011;61166;54.228;37.632;2022-08-19T13:06:41;8.40;;;3.63;;
72974;SDS011;61166;54.228;37.632;2022-08-19T13:09:07;10.88;;;3.88;;
72974;SDS011;61166;54.228;37.632;2022-08-19T13:11:33;9.00;;;4.40;;
72974;SDS011;61166;54.228;37.632;2022-08-19T13:13:59;8.53;;;3.73;;
72974;SDS011;61166;54.228;37.632;2022-08-19T13:16:27;9.63;;;3.42;;
72974;SDS011;61166;54.228;37.632;2022-08-19T13:18:53;12.75;;;4.07;;
72974;SDS011;61166;54.228;37.632;2022-08-19T13:21:21;17.65;;;4.20;;
72974;SDS011;61166;54.228;37.632;2022-08-19T13:23:49;12.82;;;4.05;;
72974;SDS011;61166;54.228;37.632;2022-08-19T13:26:15;11.63;;;5.17;;
72974;SDS011;61166;54.228;37.632;2022-08-19T13:28:42;10.60;;;4.18;;
72974;SDS011;61166;54.228;37.632;2022-08-19T13:31:27;10.10;;;5.18;;
72974;SDS011;61166;54.228;37.632;2022-08-19T13:34:14;12.05;;;4.45;;
72974;SDS011;61166;54.228;37.632;2022-08-19T13:36:40;8.23;;;5.07;;
72974;SDS011;61166;54.228;37.632;2022-08-19T13:39:06;10.43;;;5.30;;
72974;SDS011;61166;54.228;37.632;2022-08-19T13:41:33;9.32;;;5.07;;
72974;SDS011;61166;54.228;37.632;2022-08-19T13:43:59;8.77;;;5.63;;
72974;SDS011;61166;54.228;37.632;2022-08-19T13:46:24;8.95;;;4.43;;
72974;SDS011;61166;54.228;37.632;2022-08-19T13:48:50;7.93;;;5.03;;
72974;SDS011;61166;54.228;37.632;2022-08-19T13:51:16;7.93;;;4.60;;
72974;SDS011;61166;54.228;37.632;2022-08-19T13:53:42;10.70;;;5.53;;
72974;SDS011;61166;54.228;37.632;2022-08-19T13:56:10;9.60;;;5.43;;
72974;SDS011;61166;54.228;37.632;2022-08-19T13:58:40;12.80;;;4.57;;
72974;SDS011;61166;54.228;37.632;2022-08-19T14:01:05;10.87;;;5.47;;
72974;SDS011;61166;54.228;37.632;2022-08-19T14:03:32;9.73;;;4.93;;
72974;SDS011;61166;54.228;37.632;2022-08-19T14:05:58;8.10;;;4.97;;
72974;SDS011;61166;54.228;37.632;2022-08-19T14:08:24;9.20;;;5.60;;
72974;SDS011;61166;54.228;37.632;2022-08-19T14:10:50;9.40;;;4.35;;
72974;SDS011;61166;54.228;37.632;2022-08-19T14:13:18;7.70;;;5.00;;
72974;SDS011;61166;54.228;37.632;2022-08-19T14:15:45;11.40;;;5.53;;
72974;SDS011;61166;54.228;37.632;2022-08-19T14:18:11;8.33;;;4.40;;
72974;SDS011;61166;54.228;37.632;2022-08-19T14:20:36;9.60;;;4.63;;
72974;SDS011;61166;54.228;37.632;2022-08-19T14:23:02;9.30;;;4.50;;
72974;SDS011;61166;54.228;37.632;2022-08-19T14:25:30;11.00;;;5.55;;
72974;SDS011;61166;54.228;37.632;2022-08-19T14:27:56;10.52;;;5.53;;
72974;SDS011;61166;54.228;37.632;2022-08-19T14:30:24;9.70;;;5.77;;
72974;SDS011;61166;54.228;37.632;2022-08-19T14:32:52;12.80;;;5.60;;
72974;SDS011;61166;54.228;37.632;2022-08-19T14:35:19;9.88;;;5.93;;
72974;SDS011;61166;54.228;37.632;2022-08-19T14:37:47;7.90;;;4.40;;
72974;SDS011;61166;54.228;37.632;2022-08-19T14:40:14;10.98;;;4.30;;
72974;SDS011;61166;54.228;37.632;2022-08-19T14:42:41;12.50;;;5.80;;